sensor_id;sensor_type;location;lat;lon;timestamp;P1;durP1;ratioP1;P2;durP2;ratioP2
53867;SDS011;41577;47.470;19.080;2023-06-26T00:00:06;6.85;;;4.95;;
53867;SDS011;41577;47.470;19.080;2023-06-26T00:00:18;6.00;;;4.68;;
53867;SDS011;41577;47.470;19.080;2023-06-26T00:00:30;5.20;;;4.65;;
53867;SDS011;41577;47.470;19.080;2023-06-26T00:00:42;5.70;;;4.60;;
53867;SDS011;41577;47.470;19.080;2023-06-26T00:00:54;7.90;;;4.60;;
53867;SDS011;41577;47.470;19.080;2023-06-26T00:01:06;12.48;;;4.57;;
53867;SDS011;41577;47.470;19.080;2023-06-26T00:01:17;11.50;;;4.57;;
53867;SDS011;41577;47.470;19.080;2023-06-26T00:01:31;6.30;;;4.35;;
53867;SDS011;41577;47.470;19.080;2023-06-26T00:01:43;5.15;;;4.65;;
53867;SDS011;41577;47.470;19.080;2023-06-26T00:01:54;8.00;;;4.88;;
53867;SDS011;41577;47.470;19.080;2023-06-26T00:02:06;8.25;;;5.03;;
53867;SDS011;41577;47.470;19.080;2023-06-26T00:02:18;6.57;;;4.60;;
53867;SDS011;41577;47.470;19.080;2023-06-26T00:02:29;9.10;;;4.70;;
53867;SDS011;41577;47.470;19.080;2023-06-26T00:02:41;9.82;;;4.65;;
53867;SDS011;41577;47.470;19.080;2023-06-26T00:02:53;7.97;;;4.70;;
53867;SDS011;41577;47.470;19.080;2023-06-26T00:03:05;6.22;;;4.63;;
53867;SDS011;41577;47.470;19.080;2023-06-26T00:03:17;6.15;;;4.70;;
53867;SDS011;41577;47.470;19.080;2023-06-26T00:03:28;5.18;;;4.50;;
53867;SDS011;41577;47.470;19.080;2023-06-26T00:03:40;5.18;;;4.30;;
53867;SDS011;41577;47.470;19.080;2023-06-26T00:03:52;5.47;;;4.40;;
53867;SDS011;41577;47.470;19.080;2023-06-26T00:04:04;5.10;;;4.47;;
53867;SDS011;41577;47.470;19.080;2023-06-26T00:04:16;4.97;;;4.47;;
53867;SDS011;41577;47.470;19.080;2023-06-26T00:04:28;4.75;;;4.35;;
53867;SDS011;41577;47.470;19.080;2023-06-26T00:04:41;4.70;;;4.22;;
53867;SDS011;41577;47.470;19.080;2023-06-26T00:04:53;7.65;;;4.45;;
53867;SDS011;41577;47.470;19.080;2023-06-26T00:05:05;7.80;;;4.53;;
53867;SDS011;41577;47.470;19.080;2023-06-26T00:05:17;5.97;;;4.40;;
53867;SDS011;41577;47.470;19.080;2023-06-26T00:05:29;5.78;;;4.40;;
53867;SDS011;41577;47.470;19.080;2023-06-26T00:05:41;6.60;;;4.45;;
53867;SDS011;41577;47.470;19.080;2023-06-26T00:05:53;6.75;;;4.65;;
53867;SDS011;41577;47.470;19.080;2023-06-26T00:06:04;6.03;;;4.75;;
53867;SDS011;41577;47.470;19.080;2023-06-26T00:06:16;6.15;;;4.50;;
53867;SDS011;41577;47.470;19.080;2023-06-26T00:06:28;7.68;;;4.70;;
53867;SDS011;41577;47.470;19.080;2023-06-26T00:06:40;8.20;;;4.60;;
53867;SDS011;41577;47.470;19.080;2023-06-26T00:06:52;5.63;;;4.65;;
53867;SDS011;41577;47.470;19.080;2023-06-26T00:07:04;5.35;;;4.55;;
53867;SDS011;41577;47.470;19.080;2023-06-26T00:07:16;5.50;;;4.82;;
53867;SDS011;41577;47.470;19.080;2023-06-26T00:07:28;5.07;;;4.60;;
53867;SDS011;41577;47.470;19.080;2023-06-26T00:07:40;7.07;;;4.40;;
53867;SDS011;41577;47.470;19.080;2023-06-26T00:07:52;9.73;;;4.43;;
53867;SDS011;41577;47.470;19.080;2023-06-26T00:08:04;11.23;;;4.88;;
53867;SDS011;41577;47.470;19.080;2023-06-26T00:08:15;8.10;;;5.15;;
53867;SDS011;41577;47.470;19.080;2023-06-26T00:08:27;8.13;;;5.28;;
53867;SDS011;41577;47.470;19.080;2023-06-26T00:08:40;9.02;;;5.20;;
53867;SDS011;41577;47.470;19.080;2023-06-26T00:08:51;10.52;;;5.07;;
53867;SDS011;41577;47.470;19.080;2023-06-26T00:09:04;13.30;;;5.03;;
53867;SDS011;41577;47.470;19.080;2023-06-26T00:09:15;14.85;;;4.75;;
53867;SDS011;41577;47.470;19.080;2023-06-26T00:09:27;10.18;;;4.72;;
53867;SDS011;41577;47.470;19.080;2023-06-26T00:09:39;7.00;;;4.82;;
53867;SDS011;41577;47.470;19.080;2023-06-26T00:09:51;11.07;;;5.13;;
53867;SDS011;41577;47.470;19.080;2023-06-26T00:10:03;12.63;;;5.30;;
53867;SDS011;41577;47.470;19.080;2023-06-26T00:10:15;10.82;;;5.18;;
53867;SDS011;41577;47.470;19.080;2023-06-26T00:10:27;9.07;;;4.60;;
53867;SDS011;41577;47.470;19.080;2023-06-26T00:10:39;9.02;;;4.68;;
53867;SDS011;41577;47.470;19.080;2023-06-26T00:10:51;6.55;;;4.78;;
53867;SDS011;41577;47.470;19.080;2023-06-26T00:11:03;5.65;;;4.68;;
53867;SDS011;41577;47.470;19.080;2023-06-26T00:11:14;5.65;;;4.60;;
53867;SDS011;41577;47.470;19.080;2023-06-26T00:11:26;7.05;;;5.05;;
53867;SDS011;41577;47.470;19.080;2023-06-26T00:11:38;6.70;;;5.20;;
53867;SDS011;41577;47.470;19.080;2023-06-26T00:11:50;6.57;;;5.18;;
53867;SDS011;41577;47.470;19.080;2023-06-26T00:12:01;8.68;;;5.32;;
53867;SDS011;41577;47.470;19.080;2023-06-26T00:12:13;9.45;;;5.40;;
53867;SDS011;41577;47.470;19.080;2023-06-26T00:12:26;7.85;;;5.07;;
53867;SDS011;41577;47.470;19.080;2023-06-26T00:12:38;6.35;;;4.93;;
53867;SDS011;41577;47.470;19.080;2023-06-26T00:12:50;8.13;;;5.03;;
53867;SDS011;41577;47.470;19.080;2023-06-26T00:13:01;7.97;;;5.10;;
53867;SDS011;41577;47.470;19.080;2023-06-26T00:13:13;6.05;;;4.90;;
53867;SDS011;41577;47.470;19.080;2023-06-26T00:13:25;6.38;;;4.95;;
53867;SDS011;41577;47.470;19.080;2023-06-26T00:13:37;7.22;;;4.95;;
53867;SDS011;41577;47.470;19.080;2023-06-26T00:13:49;7.70;;;5.03;;
53867;SDS011;41577;47.470;19.080;2023-06-26T00:14:00;6.45;;;4.55;;
53867;SDS011;41577;47.470;19.080;2023-06-26T00:14:12;5.10;;;4.60;;
53867;SDS011;41577;47.470;19.080;2023-06-26T00:14:24;5.55;;;5.03;;
53867;SDS011;41577;47.470;19.080;2023-06-26T00:14:36;6.00;;;5.10;;
53867;SDS011;41577;47.470;19.080;2023-06-26T00:14:48;6.53;;;5.00;;
53867;SDS011;41577;47.470;19.080;2023-06-26T00:14:59;6.88;;;5.00;;
53867;SDS011;41577;47.470;19.080;2023-06-26T00:15:11;5.30;;;4.70;;
53867;SDS011;41577;47.470;19.080;2023-06-26T00:15:23;6.95;;;4.75;;
53867;SDS011;41577;47.470;19.080;2023-06-26T00:15:35;6.13;;;4.72;;
53867;SDS011;41577;47.470;19.080;2023-06-26T00:15:46;6.80;;;4.82;;
53867;SDS011;41577;47.470;19.080;2023-06-26T00:15:58;5.30;;;4.75;;
53867;SDS011;41577;47.470;19.080;2023-06-26T00:16:10;5.10;;;4.55;;
53867;SDS011;41577;47.470;19.080;2023-06-26T00:16:21;5.25;;;4.70;;
53867;SDS011;41577;47.470;19.080;2023-06-26T00:16:34;7.63;;;4.95;;
53867;SDS011;41577;47.470;19.080;2023-06-26T00:16:47;9.43;;;5.18;;
53867;SDS011;41577;47.470;19.080;2023-06-26T00:16:59;9.60;;;5.38;;
53867;SDS011;41577;47.470;19.080;2023-06-26T00:17:11;12.02;;;5.32;;
53867;SDS011;41577;47.470;19.080;2023-06-26T00:17:23;10.05;;;5.03;;
53867;SDS011;41577;47.470;19.080;2023-06-26T00:17:35;6.35;;;4.68;;
53867;SDS011;41577;47.470;19.080;2023-06-26T00:17:46;12.25;;;4.70;;
53867;SDS011;41577;47.470;19.080;2023-06-26T00:17:58;11.88;;;4.88;;
53867;SDS011;41577;47.470;19.080;2023-06-26T00:18:10;7.03;;;4.93;;
53867;SDS011;41577;47.470;19.080;2023-06-26T00:18:22;6.63;;;5.03;;
53867;SDS011;41577;47.470;19.080;2023-06-26T00:18:33;6.13;;;4.80;;
53867;SDS011;41577;47.470;19.080;2023-06-26T00:18:45;6.22;;;4.55;;
53867;SDS011;41577;47.470;19.080;2023-06-26T00:18:57;5.70;;;4.50;;
53867;SDS011;41577;47.470;19.080;2023-06-26T00:19:09;5.35;;;4.63;;
53867;SDS011;41577;47.470;19.080;2023-06-26T00:19:20;6.15;;;5.05;;
53867;SDS011;41577;47.470;19.080;2023-06-26T00:19:32;5.85;;;5.15;;
53867;SDS011;41577;47.470;19.080;2023-06-26T00:19:44;6.90;;;5.20;;
53867;SDS011;41577;47.470;19.080;2023-06-26T00:19:56;7.68;;;5.35;;
53867;SDS011;41577;47.470;19.080;2023-06-26T00:20:08;7.32;;;5.28;;
53867;SDS011;41577;47.470;19.080;2023-06-26T00:20:23;6.45;;;4.85;;
53867;SDS011;41577;47.470;19.080;2023-06-26T00:20:34;5.63;;;4.97;;
53867;SDS011;41577;47.470;19.080;2023-06-26T00:20:47;6.07;;;4.85;;
53867;SDS011;41577;47.470;19.080;2023-06-26T00:20:58;8.10;;;4.85;;
53867;SDS011;41577;47.470;19.080;2023-06-26T00:21:10;7.32;;;4.55;;
53867;SDS011;41577;47.470;19.080;2023-06-26T00:21:22;6.55;;;4.57;;
53867;SDS011;41577;47.470;19.080;2023-06-26T00:21:33;6.00;;;4.53;;
53867;SDS011;41577;47.470;19.080;2023-06-26T00:21:45;5.68;;;4.53;;
53867;SDS011;41577;47.470;19.080;2023-06-26T00:21:57;5.20;;;4.70;;
53867;SDS011;41577;47.470;19.080;2023-06-26T00:22:09;5.30;;;4.80;;
53867;SDS011;41577;47.470;19.080;2023-06-26T00:22:20;5.53;;;4.97;;
53867;SDS011;41577;47.470;19.080;2023-06-26T00:22:32;5.40;;;4.90;;
53867;SDS011;41577;47.470;19.080;2023-06-26T00:22:44;6.85;;;4.60;;
53867;SDS011;41577;47.470;19.080;2023-06-26T00:22:56;6.57;;;4.32;;
53867;SDS011;41577;47.470;19.080;2023-06-26T00:23:08;7.15;;;4.22;;
53867;SDS011;41577;47.470;19.080;2023-06-26T00:23:19;5.35;;;4.60;;
53867;SDS011;41577;47.470;19.080;2023-06-26T00:23:31;6.22;;;5.05;;
53867;SDS011;41577;47.470;19.080;2023-06-26T00:23:43;7.03;;;5.10;;
53867;SDS011;41577;47.470;19.080;2023-06-26T00:23:54;7.63;;;4.95;;
53867;SDS011;41577;47.470;19.080;2023-06-26T00:24:06;9.18;;;4.78;;
53867;SDS011;41577;47.470;19.080;2023-06-26T00:24:18;8.88;;;4.75;;
53867;SDS011;41577;47.470;19.080;2023-06-26T00:24:30;8.77;;;4.90;;
53867;SDS011;41577;47.470;19.080;2023-06-26T00:24:42;5.93;;;5.20;;
53867;SDS011;41577;47.470;19.080;2023-06-26T00:24:53;6.25;;;5.07;;
53867;SDS011;41577;47.470;19.080;2023-06-26T00:25:05;5.95;;;4.90;;
53867;SDS011;41577;47.470;19.080;2023-06-26T00:25:17;6.20;;;4.80;;
53867;SDS011;41577;47.470;19.080;2023-06-26T00:25:29;9.70;;;5.10;;
53867;SDS011;41577;47.470;19.080;2023-06-26T00:25:40;9.98;;;4.82;;
53867;SDS011;41577;47.470;19.080;2023-06-26T00:25:52;8.93;;;4.97;;
53867;SDS011;41577;47.470;19.080;2023-06-26T00:26:04;5.30;;;4.75;;
53867;SDS011;41577;47.470;19.080;2023-06-26T00:26:16;6.82;;;5.05;;
53867;SDS011;41577;47.470;19.080;2023-06-26T00:26:27;8.10;;;5.00;;
53867;SDS011;41577;47.470;19.080;2023-06-26T00:26:39;14.32;;;4.88;;
53867;SDS011;41577;47.470;19.080;2023-06-26T00:26:51;14.43;;;5.00;;
53867;SDS011;41577;47.470;19.080;2023-06-26T00:27:03;13.63;;;4.93;;
53867;SDS011;41577;47.470;19.080;2023-06-26T00:27:15;11.05;;;5.40;;
53867;SDS011;41577;47.470;19.080;2023-06-26T00:27:28;8.98;;;5.28;;
53867;SDS011;41577;47.470;19.080;2023-06-26T00:27:39;7.40;;;4.95;;
53867;SDS011;41577;47.470;19.080;2023-06-26T00:27:51;5.47;;;4.90;;
53867;SDS011;41577;47.470;19.080;2023-06-26T00:28:03;5.75;;;4.93;;
53867;SDS011;41577;47.470;19.080;2023-06-26T00:28:15;6.90;;;4.95;;
53867;SDS011;41577;47.470;19.080;2023-06-26T00:28:27;6.57;;;5.28;;
53867;SDS011;41577;47.470;19.080;2023-06-26T00:28:38;7.05;;;5.10;;
53867;SDS011;41577;47.470;19.080;2023-06-26T00:28:50;7.35;;;4.82;;
53867;SDS011;41577;47.470;19.080;2023-06-26T00:29:02;7.85;;;4.78;;
53867;SDS011;41577;47.470;19.080;2023-06-26T00:29:14;5.57;;;4.90;;
53867;SDS011;41577;47.470;19.080;2023-06-26T00:29:25;5.68;;;5.07;;
53867;SDS011;41577;47.470;19.080;2023-06-26T00:29:37;5.38;;;4.88;;
53867;SDS011;41577;47.470;19.080;2023-06-26T00:29:49;5.07;;;4.65;;
53867;SDS011;41577;47.470;19.080;2023-06-26T00:30:01;5.28;;;4.75;;
53867;SDS011;41577;47.470;19.080;2023-06-26T00:30:12;7.95;;;5.13;;
53867;SDS011;41577;47.470;19.080;2023-06-26T00:30:24;8.75;;;5.18;;
53867;SDS011;41577;47.470;19.080;2023-06-26T00:30:36;7.88;;;5.50;;
53867;SDS011;41577;47.470;19.080;2023-06-26T00:30:48;6.15;;;5.00;;
53867;SDS011;41577;47.470;19.080;2023-06-26T00:31:00;5.30;;;4.57;;
53867;SDS011;41577;47.470;19.080;2023-06-26T00:31:13;4.97;;;4.32;;
53867;SDS011;41577;47.470;19.080;2023-06-26T00:31:25;6.10;;;4.60;;
53867;SDS011;41577;47.470;19.080;2023-06-26T00:31:38;6.70;;;5.00;;
53867;SDS011;41577;47.470;19.080;2023-06-26T00:31:50;9.48;;;5.30;;
53867;SDS011;41577;47.470;19.080;2023-06-26T00:32:02;12.65;;;5.40;;
53867;SDS011;41577;47.470;19.080;2023-06-26T00:32:14;9.73;;;5.20;;
53867;SDS011;41577;47.470;19.080;2023-06-26T00:32:26;8.60;;;4.85;;
53867;SDS011;41577;47.470;19.080;2023-06-26T00:32:38;5.75;;;5.05;;
53867;SDS011;41577;47.470;19.080;2023-06-26T00:32:50;6.40;;;5.10;;
53867;SDS011;41577;47.470;19.080;2023-06-26T00:33:01;7.22;;;5.30;;
53867;SDS011;41577;47.470;19.080;2023-06-26T00:33:15;8.85;;;5.57;;
53867;SDS011;41577;47.470;19.080;2023-06-26T00:33:27;8.35;;;5.28;;
53867;SDS011;41577;47.470;19.080;2023-06-26T00:33:38;7.22;;;4.93;;
53867;SDS011;41577;47.470;19.080;2023-06-26T00:33:50;4.85;;;4.38;;
53867;SDS011;41577;47.470;19.080;2023-06-26T00:34:02;10.90;;;5.13;;
53867;SDS011;41577;47.470;19.080;2023-06-26T00:34:14;11.30;;;5.45;;
53867;SDS011;41577;47.470;19.080;2023-06-26T00:34:26;6.88;;;4.65;;
53867;SDS011;41577;47.470;19.080;2023-06-26T00:34:38;4.90;;;4.40;;
53867;SDS011;41577;47.470;19.080;2023-06-26T00:34:50;5.28;;;4.40;;
53867;SDS011;41577;47.470;19.080;2023-06-26T00:35:01;5.78;;;4.72;;
53867;SDS011;41577;47.470;19.080;2023-06-26T00:35:13;6.32;;;5.07;;
53867;SDS011;41577;47.470;19.080;2023-06-26T00:35:28;6.65;;;5.20;;
53867;SDS011;41577;47.470;19.080;2023-06-26T00:35:40;6.30;;;5.38;;
53867;SDS011;41577;47.470;19.080;2023-06-26T00:35:52;8.05;;;5.50;;
53867;SDS011;41577;47.470;19.080;2023-06-26T00:36:04;9.63;;;5.28;;
53867;SDS011;41577;47.470;19.080;2023-06-26T00:36:15;9.38;;;5.07;;
53867;SDS011;41577;47.470;19.080;2023-06-26T00:36:27;6.47;;;4.55;;
53867;SDS011;41577;47.470;19.080;2023-06-26T00:36:39;5.78;;;4.43;;
53867;SDS011;41577;47.470;19.080;2023-06-26T00:36:50;4.88;;;4.38;;
53867;SDS011;41577;47.470;19.080;2023-06-26T00:37:02;4.97;;;4.47;;
53867;SDS011;41577;47.470;19.080;2023-06-26T00:37:15;10.40;;;5.15;;
53867;SDS011;41577;47.470;19.080;2023-06-26T00:37:26;10.63;;;5.63;;
53867;SDS011;41577;47.470;19.080;2023-06-26T00:37:38;7.22;;;5.32;;
53867;SDS011;41577;47.470;19.080;2023-06-26T00:37:50;6.30;;;5.30;;
53867;SDS011;41577;47.470;19.080;2023-06-26T00:38:02;6.13;;;5.00;;
53867;SDS011;41577;47.470;19.080;2023-06-26T00:38:13;5.17;;;4.53;;
53867;SDS011;41577;47.470;19.080;2023-06-26T00:38:25;5.35;;;4.43;;
53867;SDS011;41577;47.470;19.080;2023-06-26T00:38:37;6.75;;;4.65;;
53867;SDS011;41577;47.470;19.080;2023-06-26T00:38:50;6.57;;;4.90;;
53867;SDS011;41577;47.470;19.080;2023-06-26T00:39:02;6.18;;;4.88;;
53867;SDS011;41577;47.470;19.080;2023-06-26T00:39:13;8.02;;;4.95;;
53867;SDS011;41577;47.470;19.080;2023-06-26T00:39:25;12.98;;;5.43;;
53867;SDS011;41577;47.470;19.080;2023-06-26T00:39:37;12.20;;;5.15;;
53867;SDS011;41577;47.470;19.080;2023-06-26T00:39:49;6.78;;;5.10;;
53867;SDS011;41577;47.470;19.080;2023-06-26T00:40:01;7.43;;;4.90;;
53867;SDS011;41577;47.470;19.080;2023-06-26T00:40:13;7.93;;;4.78;;
53867;SDS011;41577;47.470;19.080;2023-06-26T00:40:24;9.50;;;4.85;;
53867;SDS011;41577;47.470;19.080;2023-06-26T00:40:36;8.70;;;4.90;;
53867;SDS011;41577;47.470;19.080;2023-06-26T00:40:48;7.20;;;4.85;;
53867;SDS011;41577;47.470;19.080;2023-06-26T00:41:01;5.68;;;4.85;;
53867;SDS011;41577;47.470;19.080;2023-06-26T00:41:13;7.13;;;4.95;;
53867;SDS011;41577;47.470;19.080;2023-06-26T00:41:25;9.40;;;4.95;;
53867;SDS011;41577;47.470;19.080;2023-06-26T00:41:37;9.85;;;5.07;;
53867;SDS011;41577;47.470;19.080;2023-06-26T00:41:49;9.10;;;5.25;;
53867;SDS011;41577;47.470;19.080;2023-06-26T00:42:02;7.45;;;5.20;;
53867;SDS011;41577;47.470;19.080;2023-06-26T00:42:13;9.35;;;5.20;;
53867;SDS011;41577;47.470;19.080;2023-06-26T00:42:25;12.35;;;5.28;;
53867;SDS011;41577;47.470;19.080;2023-06-26T00:42:37;13.35;;;5.40;;
53867;SDS011;41577;47.470;19.080;2023-06-26T00:42:49;10.23;;;5.57;;
53867;SDS011;41577;47.470;19.080;2023-06-26T00:43:01;8.02;;;5.57;;
53867;SDS011;41577;47.470;19.080;2023-06-26T00:43:13;7.95;;;5.22;;
53867;SDS011;41577;47.470;19.080;2023-06-26T00:43:25;7.70;;;4.93;;
53867;SDS011;41577;47.470;19.080;2023-06-26T00:43:37;6.47;;;5.00;;
53867;SDS011;41577;47.470;19.080;2023-06-26T00:43:49;7.07;;;5.22;;
53867;SDS011;41577;47.470;19.080;2023-06-26T00:44:01;8.48;;;5.70;;
53867;SDS011;41577;47.470;19.080;2023-06-26T00:44:13;9.55;;;6.00;;
53867;SDS011;41577;47.470;19.080;2023-06-26T00:44:24;9.32;;;5.93;;
53867;SDS011;41577;47.470;19.080;2023-06-26T00:44:36;6.72;;;5.32;;
53867;SDS011;41577;47.470;19.080;2023-06-26T00:44:48;6.00;;;5.00;;
53867;SDS011;41577;47.470;19.080;2023-06-26T00:45:00;5.80;;;4.93;;
53867;SDS011;41577;47.470;19.080;2023-06-26T00:45:11;5.68;;;5.07;;
53867;SDS011;41577;47.470;19.080;2023-06-26T00:45:23;5.85;;;5.22;;
53867;SDS011;41577;47.470;19.080;2023-06-26T00:45:52;6.00;;;5.13;;
53867;SDS011;41577;47.470;19.080;2023-06-26T00:46:04;6.68;;;5.25;;
53867;SDS011;41577;47.470;19.080;2023-06-26T00:46:16;6.63;;;5.20;;
53867;SDS011;41577;47.470;19.080;2023-06-26T00:46:28;6.28;;;5.13;;
53867;SDS011;41577;47.470;19.080;2023-06-26T00:46:42;6.90;;;4.88;;
53867;SDS011;41577;47.470;19.080;2023-06-26T00:46:55;6.43;;;5.22;;
53867;SDS011;41577;47.470;19.080;2023-06-26T00:47:07;9.37;;;5.47;;
53867;SDS011;41577;47.470;19.080;2023-06-26T00:47:19;8.77;;;5.30;;
53867;SDS011;41577;47.470;19.080;2023-06-26T00:47:31;9.60;;;5.07;;
53867;SDS011;41577;47.470;19.080;2023-06-26T00:47:43;8.15;;;4.68;;
53867;SDS011;41577;47.470;19.080;2023-06-26T00:47:55;9.02;;;4.72;;
53867;SDS011;41577;47.470;19.080;2023-06-26T00:48:07;8.00;;;4.95;;
53867;SDS011;41577;47.470;19.080;2023-06-26T00:48:19;7.57;;;4.72;;
53867;SDS011;41577;47.470;19.080;2023-06-26T00:48:31;5.63;;;4.80;;
53867;SDS011;41577;47.470;19.080;2023-06-26T00:48:44;5.88;;;5.05;;
53867;SDS011;41577;47.470;19.080;2023-06-26T00:48:58;7.75;;;5.60;;
53867;SDS011;41577;47.470;19.080;2023-06-26T00:49:11;10.30;;;5.80;;
53867;SDS011;41577;47.470;19.080;2023-06-26T00:49:24;9.80;;;5.57;;
53867;SDS011;41577;47.470;19.080;2023-06-26T00:49:36;8.85;;;4.88;;
53867;SDS011;41577;47.470;19.080;2023-06-26T00:49:48;16.02;;;4.60;;
53867;SDS011;41577;47.470;19.080;2023-06-26T00:50:00;15.55;;;4.65;;
53867;SDS011;41577;47.470;19.080;2023-06-26T00:50:12;13.95;;;5.13;;
53867;SDS011;41577;47.470;19.080;2023-06-26T00:50:24;5.82;;;5.20;;
53867;SDS011;41577;47.470;19.080;2023-06-26T00:50:37;7.22;;;5.30;;
53867;SDS011;41577;47.470;19.080;2023-06-26T00:50:49;7.00;;;5.28;;
53867;SDS011;41577;47.470;19.080;2023-06-26T00:51:01;7.32;;;5.43;;
53867;SDS011;41577;47.470;19.080;2023-06-26T00:51:13;6.43;;;5.40;;
53867;SDS011;41577;47.470;19.080;2023-06-26T00:51:25;8.27;;;5.28;;
53867;SDS011;41577;47.470;19.080;2023-06-26T00:51:37;8.23;;;5.28;;
53867;SDS011;41577;47.470;19.080;2023-06-26T00:51:49;7.38;;;5.45;;
53867;SDS011;41577;47.470;19.080;2023-06-26T00:52:01;6.13;;;5.28;;
53867;SDS011;41577;47.470;19.080;2023-06-26T00:52:15;6.13;;;5.22;;
53867;SDS011;41577;47.470;19.080;2023-06-26T00:52:27;8.73;;;5.35;;
53867;SDS011;41577;47.470;19.080;2023-06-26T00:52:39;12.50;;;5.43;;
53867;SDS011;41577;47.470;19.080;2023-06-26T00:52:51;11.63;;;5.60;;
53867;SDS011;41577;47.470;19.080;2023-06-26T00:53:02;7.88;;;5.30;;
53867;SDS011;41577;47.470;19.080;2023-06-26T00:53:14;5.85;;;5.35;;
53867;SDS011;41577;47.470;19.080;2023-06-26T00:53:26;6.00;;;5.43;;
53867;SDS011;41577;47.470;19.080;2023-06-26T00:53:38;5.25;;;4.85;;
53867;SDS011;41577;47.470;19.080;2023-06-26T00:53:50;5.82;;;4.95;;
53867;SDS011;41577;47.470;19.080;2023-06-26T00:54:02;8.25;;;5.32;;
53867;SDS011;41577;47.470;19.080;2023-06-26T00:54:15;7.57;;;5.30;;
53867;SDS011;41577;47.470;19.080;2023-06-26T00:54:27;6.20;;;5.22;;
53867;SDS011;41577;47.470;19.080;2023-06-26T00:54:39;6.45;;;5.70;;
53867;SDS011;41577;47.470;19.080;2023-06-26T00:54:51;8.32;;;6.07;;
53867;SDS011;41577;47.470;19.080;2023-06-26T00:55:03;13.57;;;6.28;;
53867;SDS011;41577;47.470;19.080;2023-06-26T00:55:15;11.98;;;5.72;;
53867;SDS011;41577;47.470;19.080;2023-06-26T00:55:27;8.80;;;5.35;;
53867;SDS011;41577;47.470;19.080;2023-06-26T00:55:40;5.78;;;4.95;;
53867;SDS011;41577;47.470;19.080;2023-06-26T00:55:53;6.32;;;4.85;;
53867;SDS011;41577;47.470;19.080;2023-06-26T00:56:05;7.35;;;5.13;;
53867;SDS011;41577;47.470;19.080;2023-06-26T00:56:20;5.88;;;5.28;;
53867;SDS011;41577;47.470;19.080;2023-06-26T00:56:32;5.95;;;5.00;;
53867;SDS011;41577;47.470;19.080;2023-06-26T00:56:44;6.10;;;4.90;;
53867;SDS011;41577;47.470;19.080;2023-06-26T00:56:56;5.85;;;5.13;;
53867;SDS011;41577;47.470;19.080;2023-06-26T00:57:08;7.13;;;5.50;;
53867;SDS011;41577;47.470;19.080;2023-06-26T00:57:20;7.65;;;5.85;;
53867;SDS011;41577;47.470;19.080;2023-06-26T00:57:32;8.23;;;5.57;;
53867;SDS011;41577;47.470;19.080;2023-06-26T00:57:44;14.60;;;5.55;;
53867;SDS011;41577;47.470;19.080;2023-06-26T00:57:55;12.82;;;5.18;;
53867;SDS011;41577;47.470;19.080;2023-06-26T00:58:07;5.85;;;4.97;;
53867;SDS011;41577;47.470;19.080;2023-06-26T00:58:19;5.75;;;5.18;;
53867;SDS011;41577;47.470;19.080;2023-06-26T00:58:33;8.10;;;5.50;;
53867;SDS011;41577;47.470;19.080;2023-06-26T00:58:45;8.98;;;5.32;;
53867;SDS011;41577;47.470;19.080;2023-06-26T00:58:57;10.13;;;5.55;;
53867;SDS011;41577;47.470;19.080;2023-06-26T00:59:10;7.88;;;5.55;;
53867;SDS011;41577;47.470;19.080;2023-06-26T00:59:22;6.40;;;5.10;;
53867;SDS011;41577;47.470;19.080;2023-06-26T00:59:34;5.75;;;4.68;;
53867;SDS011;41577;47.470;19.080;2023-06-26T00:59:46;5.07;;;4.65;;
53867;SDS011;41577;47.470;19.080;2023-06-26T00:59:59;5.05;;;4.60;;
53867;SDS011;41577;47.470;19.080;2023-06-26T01:00:14;6.22;;;4.80;;
53867;SDS011;41577;47.470;19.080;2023-06-26T01:00:27;8.35;;;5.45;;
53867;SDS011;41577;47.470;19.080;2023-06-26T01:00:39;8.02;;;5.75;;
53867;SDS011;41577;47.470;19.080;2023-06-26T01:00:51;7.40;;;5.65;;
53867;SDS011;41577;47.470;19.080;2023-06-26T01:01:03;7.10;;;5.10;;
53867;SDS011;41577;47.470;19.080;2023-06-26T01:01:15;5.97;;;5.00;;
53867;SDS011;41577;47.470;19.080;2023-06-26T01:01:27;6.57;;;5.30;;
53867;SDS011;41577;47.470;19.080;2023-06-26T01:01:39;6.85;;;5.53;;
53867;SDS011;41577;47.470;19.080;2023-06-26T01:01:55;6.07;;;5.43;;
53867;SDS011;41577;47.470;19.080;2023-06-26T01:02:07;6.15;;;5.22;;
53867;SDS011;41577;47.470;19.080;2023-06-26T01:02:19;6.32;;;5.10;;
53867;SDS011;41577;47.470;19.080;2023-06-26T01:02:34;12.68;;;4.88;;
53867;SDS011;41577;47.470;19.080;2023-06-26T01:02:46;15.18;;;5.30;;
53867;SDS011;41577;47.470;19.080;2023-06-26T01:02:58;14.27;;;5.38;;
53867;SDS011;41577;47.470;19.080;2023-06-26T01:03:11;9.35;;;5.43;;
53867;SDS011;41577;47.470;19.080;2023-06-26T01:03:23;8.68;;;5.65;;
53867;SDS011;41577;47.470;19.080;2023-06-26T01:03:39;6.82;;;5.68;;
53867;SDS011;41577;47.470;19.080;2023-06-26T01:03:51;6.05;;;5.43;;
53867;SDS011;41577;47.470;19.080;2023-06-26T01:04:04;5.65;;;5.15;;
53867;SDS011;41577;47.470;19.080;2023-06-26T01:04:16;5.53;;;5.03;;
53867;SDS011;41577;47.470;19.080;2023-06-26T01:04:28;6.70;;;5.45;;
53867;SDS011;41577;47.470;19.080;2023-06-26T01:04:40;7.57;;;5.70;;
53867;SDS011;41577;47.470;19.080;2023-06-26T01:04:51;10.38;;;5.95;;
53867;SDS011;41577;47.470;19.080;2023-06-26T01:05:04;9.38;;;5.57;;
53867;SDS011;41577;47.470;19.080;2023-06-26T01:05:19;17.13;;;5.55;;
53867;SDS011;41577;47.470;19.080;2023-06-26T01:05:33;17.00;;;5.82;;
53867;SDS011;41577;47.470;19.080;2023-06-26T01:05:45;7.82;;;5.63;;
53867;SDS011;41577;47.470;19.080;2023-06-26T01:05:58;8.15;;;5.57;;
53867;SDS011;41577;47.470;19.080;2023-06-26T01:06:11;8.93;;;5.38;;
53867;SDS011;41577;47.470;19.080;2023-06-26T01:06:25;10.05;;;5.25;;
53867;SDS011;41577;47.470;19.080;2023-06-26T01:06:40;7.68;;;5.10;;
53867;SDS011;41577;47.470;19.080;2023-06-26T01:06:53;9.02;;;5.00;;
53867;SDS011;41577;47.470;19.080;2023-06-26T01:07:08;8.35;;;5.15;;
53867;SDS011;41577;47.470;19.080;2023-06-26T01:07:20;7.28;;;5.47;;
53867;SDS011;41577;47.470;19.080;2023-06-26T01:07:45;12.70;;;5.32;;
53867;SDS011;41577;47.470;19.080;2023-06-26T01:07:58;10.25;;;5.25;;
53867;SDS011;41577;47.470;19.080;2023-06-26T01:08:10;12.50;;;5.63;;
53867;SDS011;41577;47.470;19.080;2023-06-26T01:08:23;9.55;;;5.93;;
53867;SDS011;41577;47.470;19.080;2023-06-26T01:08:35;6.57;;;5.45;;
53867;SDS011;41577;47.470;19.080;2023-06-26T01:08:47;6.55;;;5.07;;
53867;SDS011;41577;47.470;19.080;2023-06-26T01:09:02;8.80;;;5.22;;
53867;SDS011;41577;47.470;19.080;2023-06-26T01:09:15;8.60;;;5.40;;
53867;SDS011;41577;47.470;19.080;2023-06-26T01:09:28;6.38;;;5.32;;
53867;SDS011;41577;47.470;19.080;2023-06-26T01:09:41;7.00;;;5.43;;
53867;SDS011;41577;47.470;19.080;2023-06-26T01:09:54;7.75;;;5.30;;
53867;SDS011;41577;47.470;19.080;2023-06-26T01:10:06;9.50;;;5.28;;
53867;SDS011;41577;47.470;19.080;2023-06-26T01:10:18;8.48;;;5.25;;
53867;SDS011;41577;47.470;19.080;2023-06-26T01:10:30;6.55;;;5.35;;
53867;SDS011;41577;47.470;19.080;2023-06-26T01:10:44;5.97;;;5.38;;
53867;SDS011;41577;47.470;19.080;2023-06-26T01:10:56;6.85;;;5.60;;
53867;SDS011;41577;47.470;19.080;2023-06-26T01:11:10;7.93;;;5.57;;
53867;SDS011;41577;47.470;19.080;2023-06-26T01:11:22;8.32;;;5.43;;
53867;SDS011;41577;47.470;19.080;2023-06-26T01:11:35;7.95;;;5.63;;
53867;SDS011;41577;47.470;19.080;2023-06-26T01:11:47;11.48;;;5.38;;
53867;SDS011;41577;47.470;19.080;2023-06-26T01:11:59;10.30;;;5.43;;
53867;SDS011;41577;47.470;19.080;2023-06-26T01:12:10;8.85;;;5.30;;
53867;SDS011;41577;47.470;19.080;2023-06-26T01:12:22;5.68;;;5.13;;